Nearby METAR Reports

 

EGEO - Oban, United Kingdom
Distance from station: SSW 18mi, 30km
Updated: 18/10/2019 10:50
Mostly cloudy
Mostly cloudy
 Wind from calm
Wind: Calm
Temperature: 10°C
Dew Point: 7°C
Humidity: 82%
Barometer: 994 hPa
Clouds: Mostly cloudy
Visibility: 6 miles , 10 km
Cloud details: Few Clouds 732 m
Mostly cloudy 1402 m
2019/10/18 09:50 EGEO 180950Z 00000KT 9999 FEW024 BKN046 10/07 Q0994
EGPU - Tiree, United Kingdom
Distance from station: WSW 64mi, 103km
Updated: 18/10/2019 10:50
Partly cloudy
Partly cloudy
 Wind from E
Wind: E 9 mph , 15 km/h
Temperature: 11°C
Dew Point: 8°C
Humidity: 82%
Barometer: 994 hPa
Clouds: Partly cloudy
Visibility: 6 miles , 10 km
Cloud details: Few Clouds 549 m
Partly cloudy 1494 m
2019/10/18 09:50 EGPU 180950Z 10008KT 9999 FEW018 SCT049 11/08 Q0994
EGPF - Glasgow, United Kingdom
Distance from station: SSE 66mi, 107km
Updated: 18/10/2019 10:50
Mostly cloudy
Mostly cloudy
 Wind from E
Wind: E 6 mph , 9 km/h
Temperature: 11°C
Dew Point: 8°C
Humidity: 82%
Barometer: 994 hPa
Clouds: Mostly cloudy
Visibility: 6 miles , 10 km
Cloud details: Mostly cloudy 1433 m
2019/10/18 09:50 EGPF 180950Z AUTO 09005KT 040V130 9999 BKN047 11/08 Q0994
 
EGPE - Inverness, United Kingdom
Distance from station: NE 71mi, 114km
Updated: 18/10/2019 10:50
Few Clouds
Few Clouds
 Wind from varies
Wind: varies 2 mph , 4 km/h
Temperature: 9°C
Dew Point: 8°C
Humidity: 94%
Barometer: 996 hPa
Clouds: Few Clouds
Visibility: 6 miles , 10 km
Cloud details: Few Clouds 91 m
Few Clouds 762 m
2019/10/18 09:50 EGPE 180950Z VRB02KT 9999 9000NW FEW003 FEW025CB 09/08 Q0996
EGPI - Islay/Port Ellen, United Kingdom
Distance from station: SSW 81mi, 131km
Updated: 18/10/2019 10:50
Few Clouds
Few Clouds
 Wind from ESE
Wind: ESE 10 mph , 17 km/h
Temperature: 11°C
Dew Point: 9°C
Humidity: 88%
Barometer: 993 hPa
Clouds: Few Clouds
Visibility: 6 miles , 10 km
Cloud details: Few Clouds 610 m
2019/10/18 09:50 EGPI 180950Z 11009KT 9999 FEW020 11/09 Q0993
EGPN - Dundee/Riverside, United Kingdom
Distance from station: E 86mi, 138km
Updated: 18/10/2019 10:50
Partly cloudy
Partly cloudy
 Wind from NE
Wind: NE 5 mph , 7 km/h
Temperature: 11°C
Dew Point: 10°C
Humidity: 94%
Barometer: 994 hPa
Clouds: Partly cloudy
Visibility: 6 miles , 10 km
Cloud details: Few Clouds 305 m
Partly cloudy 579 m
2019/10/18 09:50 EGPN 180950Z 04004KT 9999 FEW010 SCT019 11/10 Q0994
 
EGPK - Prestwick, United Kingdom
Distance from station: SSE 88mi, 141km
Updated: 18/10/2019 10:50
Partly cloudy
Partly cloudy
 Wind from E
Wind: E 6 mph , 9 km/h
Temperature: 10°C
Wind Chill: 9°C
Dew Point: 8°C
Humidity: 88%
Barometer: 994 hPa
Clouds: Partly cloudy
Visibility: 6 miles , 10 km
Cloud details: Partly cloudy 823 m
2019/10/18 09:50 EGPK 180950Z 09005KT 9999 SCT027 10/08 Q0994
EGPH - Edinburgh, United Kingdom
Distance from station: SE 89mi, 143km
Updated: 18/10/2019 10:50
Few Clouds
Few Clouds
 Wind from varies
Wind: varies 1 mph , 2 km/h
Temperature: 9°C
Dew Point: 9°C
Humidity: 100%
Barometer: 994 hPa
Clouds: Few Clouds
Visibility: 6 miles , 10 km
Cloud details: Few Clouds 366 m
2019/10/18 09:50 EGPH 180950Z VRB01KT 9999 FEW012 09/09 Q0994
EGQK - RAF Kinloss, United Kingdom
Distance from station: NE 90mi, 144km
Updated: 18/10/2019 09:50
Clear
Clear
 Wind from SSE
Wind: SSE 2 mph , 4 km/h
Temperature: 7°C
Dew Point: 7°C
Humidity: 100%
Barometer: 996 hPa
Clouds: Clear
Visibility: 6 miles , 10 km
2019/10/18 08:50 EGQK 180850Z AUTO 16002KT 9999 NCD 07/07 Q0996
 
EGEC - Campbeltown, United Kingdom
Distance from station: S 90mi, 145km
Updated: 18/10/2019 10:50
Few Clouds
Few Clouds
 Wind from E
Wind: E 13 mph , 20 km/h
Temperature: 11°C
Dew Point: 8°C
Humidity: 82%
Barometer: 993 hPa
Clouds: Few Clouds
Visibility: 6 miles , 10 km
Cloud details: Few Clouds 457 m
2019/10/18 09:50 EGEC 180950Z 09011KT 9999 FEW015 11/08 Q0993
EGQA - Tain Range, United Kingdom
Distance from station: NNE 91mi, 146km
Updated: 18/10/2019 08:50
NOT Current
Few Clouds
Few Clouds
 Wind from calm
Wind: Calm
Clouds: Few Clouds
Visibility: 6 miles , 10 km
Cloud details: Few Clouds 457 m
2019/10/18 07:50 EGQA 180750Z 00000KT 9999 FEW015CB 10/// Q0996 RMK BLU
EGQL - RAF Leuchars, United Kingdom
Distance from station: ESE 93mi, 149km
Updated: 18/10/2019 10:50
Mist, Mostly cloudy
Mist, Mostly cloudy
 Wind from N
Wind: N 5 mph , 7 km/h
Temperature: 10°C
Wind Chill: 9°C
Dew Point: 10°C
Humidity: 100%
Barometer: 994 hPa
Summary: Mist
Clouds: Mostly cloudy
Visibility: 4 miles , 6 km
Cloud details: Partly cloudy 366 m
Mostly cloudy 1524 m
2019/10/18 09:50 EGQL 180950Z 36004KT 6000 BR SCT012 BKN050 10/10 Q0994 GRN
 
EGPL - Benbecula, United Kingdom
Distance from station: WNW 96mi, 154km
Updated: 18/10/2019 10:50
Partly cloudy
Partly cloudy
 Wind from NNE
Wind: NNE 1 mph , 2 km/h
Temperature: 10°C
Dew Point: 9°C
Humidity: 94%
Barometer: 995 hPa
Clouds: Partly cloudy
Visibility: 6 miles , 10 km
Cloud details: Few Clouds 335 m
Partly cloudy 1036 m
2019/10/18 09:50 EGPL 180950Z 02001KT 9999 FEW011 SCT034 10/09 Q0995
EGQS - RAF Lossiemouth, United Kingdom
Distance from station: NE 99mi, 160km
Updated: 18/10/2019 10:50
Partly cloudy
Partly cloudy
 Wind from SSE
Wind: SSE 2 mph , 4 km/h
Temperature: 10°C
Dew Point: 8°C
Humidity: 88%
Barometer: 996 hPa
Clouds: Partly cloudy
Visibility: 6 miles , 10 km
Cloud details: Few Clouds 457 m
Partly cloudy 7620 m
2019/10/18 09:50 EGQS 180950Z 15002KT 9999 FEW015CB SCT250 10/08 Q0996 TEMPO 7000 SHRA SCT020 RMK BLU TEMPO WHT
EGPO - Stornoway, United Kingdom
Distance from station: NNW 111mi, 179km
Updated: 18/10/2019 10:50
Partly cloudy
Partly cloudy
 Wind from ENE
Wind: ENE 12 mph , 19 km/h
Temperature: 12°C
Dew Point: 9°C
Humidity: 82%
Barometer: 996 hPa
Clouds: Partly cloudy
Visibility: 6 miles , 10 km
Cloud details: Few Clouds 853 m
Partly cloudy 1280 m
2019/10/18 09:50 EGPO 180950Z 06010KT 9999 FEW028 SCT042 12/09 Q0996
 
EGPD - Aberdeen/Dyce, United Kingdom
Distance from station: ENE 118mi, 190km
Updated: 18/10/2019 10:50
Rain showers, Mostly cloudy
Rain showers, Mostly cloudy
 Wind from NNW
Wind: NNW 7 mph , 11 km/h
Temperature: 9°C
Wind Chill: 7°C
Dew Point: 9°C
Humidity: 100%
Barometer: 995 hPa
Summary: Rain Showers
Clouds: Mostly cloudy
Visibility: 5 miles , 8 km
Cloud details: Few Clouds 427 m
Mostly cloudy 1006 m
2019/10/18 09:50 EGPD 180950Z 33006KT 8000 SHRA FEW014CB BKN033 09/09 Q0995 RESHRA
EGAE - Eglinton/Londond, United Kingdom
Distance from station: SSW 138mi, 222km
Updated: 18/10/2019 10:50
Few Clouds
Few Clouds
 Wind from ENE
Wind: ENE 7 mph , 11 km/h
Temperature: 10°C
Wind Chill: 8°C
Dew Point: 7°C
Humidity: 82%
Barometer: 993 hPa
Clouds: Few Clouds
Visibility: 6 miles , 10 km
Cloud details: Few Clouds 549 m
2019/10/18 09:50 EGAE 180950Z 06006KT 9999 FEW018 10/07 Q0993
EGPC - Wick, United Kingdom
Distance from station: NNE 144mi, 232km
Updated: 18/10/2019 10:50
Partly cloudy
Partly cloudy
 Wind from E
Wind: E 13 mph , 20 km/h
Temperature: 10°C
Wind Chill: 7°C
Dew Point: 8°C
Humidity: 88%
Barometer: 997 hPa
Clouds: Partly cloudy
Visibility: 6 miles , 10 km
Cloud details: Few Clouds 244 m
Partly cloudy 640 m
2019/10/18 09:50 EGPC 180950Z 10011KT 9999 FEW008 SCT021 10/08 Q0997

Metar display script from Saratoga-Weather.org